VXP676 KRDU-KHVN
Flight info
| Callsign | VXP676 |
|---|---|
| Flight time | 1h 15m |
| Altitude | 39000 |
| Route | HURIC4 FEBEL GUILD SAWED KALDA SARDI1 |
| Aircraft | B737/M-SDE2E3FGHIRWXY/LB1 |
Departure
| Time | 2026-05-06 16:34 |
|---|---|
| Airport | Raleigh-Durham International Airport (KRDU) |
Arrival
| Time | 2026-05-06 17:49 |
|---|---|
| Airport | Tweed New Haven Airport (KHVN) |
| Time | Latitude | Longitude | Altitude | Speed | Heading |
|---|---|---|---|---|---|
| 2026-05-06 15:30 | 35.87369 | -78.78980 | 421 ft | 0 kts | 315° |
| 2026-05-06 16:24 | 35.87365 | -78.78975 | 434 ft | 4 kts | 315° |
| 2026-05-06 16:24 | 35.87346 | -78.78952 | 428 ft | 4 kts | 315° |
| 2026-05-06 16:25 | 35.87327 | -78.78929 | 420 ft | 4 kts | 315° |
| 2026-05-06 16:25 | 35.87309 | -78.78907 | 420 ft | 2 kts | 315° |
| 2026-05-06 16:25 | 35.87308 | -78.78905 | 420 ft | 0 kts | 315° |
| 2026-05-06 16:28 | 35.87309 | -78.78906 | 420 ft | 0 kts | 328° |
| 2026-05-06 16:28 | 35.87314 | -78.78901 | 426 ft | 2 kts | 34° |
| 2026-05-06 16:28 | 35.87332 | -78.78872 | 424 ft | 7 kts | 53° |
| 2026-05-06 16:29 | 35.87363 | -78.78819 | 425 ft | 8 kts | 53° |
| 2026-05-06 16:29 | 35.87399 | -78.78771 | 427 ft | 8 kts | 45° |
| 2026-05-06 16:29 | 35.87443 | -78.78716 | 434 ft | 10 kts | 45° |
| 2026-05-06 16:29 | 35.87494 | -78.78654 | 432 ft | 10 kts | 46° |
| 2026-05-06 16:30 | 35.87543 | -78.78593 | 434 ft | 10 kts | 45° |
| 2026-05-06 16:30 | 35.87575 | -78.78553 | 428 ft | 10 kts | 45° |
| 2026-05-06 16:30 | 35.87646 | -78.78465 | 424 ft | 12 kts | 45° |
| 2026-05-06 16:30 | 35.87708 | -78.78389 | 434 ft | 13 kts | 45° |
| 2026-05-06 16:31 | 35.87777 | -78.78305 | 434 ft | 14 kts | 45° |
| 2026-05-06 16:31 | 35.87849 | -78.78214 | 429 ft | 15 kts | 45° |
| 2026-05-06 16:31 | 35.87920 | -78.78125 | 434 ft | 14 kts | 45° |
| 2026-05-06 16:31 | 35.87968 | -78.78069 | 423 ft | 4 kts | 47° |
| 2026-05-06 16:32 | 35.87975 | -78.78041 | 422 ft | 3 kts | 92° |
| 2026-05-06 16:32 | 35.87964 | -78.78016 | 435 ft | 3 kts | 129° |
| 2026-05-06 16:32 | 35.87948 | -78.77995 | 431 ft | 3 kts | 133° |
| 2026-05-06 16:32 | 35.87930 | -78.77973 | 437 ft | 4 kts | 135° |
| 2026-05-06 16:33 | 35.87902 | -78.77967 | 426 ft | 5 kts | 200° |
| 2026-05-06 16:33 | 35.87863 | -78.78007 | 432 ft | 12 kts | 225° |
| 2026-05-06 16:33 | 35.87639 | -78.78282 | 435 ft | 84 kts | 225° |
| 2026-05-06 16:34 | 35.86288 | -78.79955 | 972 ft | 164 kts | 225° |
| 2026-05-06 16:34 | 35.85436 | -78.80952 | 1687 ft | 170 kts | 221° |
| 2026-05-06 16:34 | 35.84564 | -78.81908 | 2624 ft | 168 kts | 222° |
| 2026-05-06 16:34 | 35.83626 | -78.82851 | 3194 ft | 184 kts | 221° |
| 2026-05-06 16:35 | 35.82539 | -78.83882 | 3531 ft | 210 kts | 218° |
| 2026-05-06 16:35 | 35.81110 | -78.84449 | 4216 ft | 232 kts | 186° |
| 2026-05-06 16:35 | 35.79407 | -78.84025 | 4760 ft | 267 kts | 164° |
| 2026-05-06 16:35 | 35.77804 | -78.82722 | 5630 ft | 288 kts | 140° |
| 2026-05-06 16:36 | 35.76721 | -78.80564 | 6495 ft | 310 kts | 111° |
| 2026-05-06 16:36 | 35.76503 | -78.77927 | 7542 ft | 320 kts | 83° |
| 2026-05-06 16:36 | 35.77099 | -78.75284 | 8833 ft | 320 kts | 66° |
| 2026-05-06 16:36 | 35.78000 | -78.72743 | 10132 ft | 321 kts | 63° |
| 2026-05-06 16:37 | 35.78941 | -78.70224 | 10836 ft | 339 kts | 63° |
| 2026-05-06 16:37 | 35.79957 | -78.67466 | 11239 ft | 365 kts | 64° |
| 2026-05-06 16:37 | 35.80991 | -78.64573 | 12167 ft | 371 kts | 65° |
| 2026-05-06 16:37 | 35.82013 | -78.61628 | 13150 ft | 376 kts | 65° |
| 2026-05-06 16:38 | 35.83032 | -78.58639 | 14040 ft | 381 kts | 65° |
| 2026-05-06 16:38 | 35.84052 | -78.55594 | 14830 ft | 387 kts | 66° |
| 2026-05-06 16:38 | 35.85080 | -78.52509 | 15645 ft | 391 kts | 66° |
| 2026-05-06 16:38 | 35.86112 | -78.49397 | 16504 ft | 394 kts | 66° |
| 2026-05-06 16:39 | 35.86801 | -78.47317 | 17037 ft | 397 kts | 66° |
| 2026-05-06 16:39 | 35.87865 | -78.44105 | 17844 ft | 401 kts | 66° |
| 2026-05-06 16:39 | 35.88911 | -78.40949 | 18558 ft | 406 kts | 66° |
| 2026-05-06 16:39 | 35.89985 | -78.37707 | 19213 ft | 411 kts | 66° |
| 2026-05-06 16:40 | 35.91071 | -78.34427 | 19886 ft | 415 kts | 66° |
| 2026-05-06 16:40 | 35.92053 | -78.31044 | 20517 ft | 422 kts | 77° |
| 2026-05-06 16:40 | 35.92455 | -78.27436 | 21175 ft | 427 kts | 84° |
| 2026-05-06 16:40 | 35.92745 | -78.23772 | 21811 ft | 432 kts | 84° |
| 2026-05-06 16:41 | 35.93040 | -78.20061 | 22387 ft | 438 kts | 83° |
| 2026-05-06 16:41 | 35.93373 | -78.16307 | 22988 ft | 443 kts | 83° |
| 2026-05-06 16:41 | 35.93730 | -78.12516 | 23595 ft | 447 kts | 82° |
| 2026-05-06 16:41 | 35.94098 | -78.08690 | 24101 ft | 451 kts | 82° |
| 2026-05-06 16:42 | 35.94471 | -78.04827 | 24599 ft | 455 kts | 82° |
| 2026-05-06 16:42 | 35.94846 | -78.00930 | 25095 ft | 459 kts | 82° |
| 2026-05-06 16:42 | 35.95217 | -77.97041 | 25578 ft | 464 kts | 82° |
| 2026-05-06 16:42 | 35.95595 | -77.93073 | 26052 ft | 467 kts | 80° |
| 2026-05-06 16:43 | 35.96373 | -77.89145 | 26487 ft | 466 kts | 63° |
| 2026-05-06 16:43 | 35.97923 | -77.85729 | 26984 ft | 461 kts | 52° |
| 2026-05-06 16:43 | 35.99731 | -77.82446 | 27457 ft | 464 kts | 50° |
| 2026-05-06 16:43 | 36.01603 | -77.79178 | 27882 ft | 468 kts | 50° |
| 2026-05-06 16:44 | 36.03498 | -77.75878 | 28326 ft | 472 kts | 50° |
| 2026-05-06 16:44 | 36.05393 | -77.72541 | 28753 ft | 476 kts | 50° |
| 2026-05-06 16:44 | 36.07285 | -77.69160 | 29195 ft | 480 kts | 50° |
| 2026-05-06 16:44 | 36.09174 | -77.65745 | 29648 ft | 484 kts | 51° |
| 2026-05-06 16:45 | 36.11078 | -77.62279 | 30089 ft | 488 kts | 51° |
| 2026-05-06 16:45 | 36.12986 | -77.58793 | 30449 ft | 491 kts | 51° |
| 2026-05-06 16:45 | 36.14901 | -77.55289 | 30834 ft | 492 kts | 51° |
| 2026-05-06 16:45 | 36.16822 | -77.51770 | 31206 ft | 494 kts | 50° |
| 2026-05-06 16:46 | 36.18753 | -77.48236 | 31546 ft | 497 kts | 50° |
| 2026-05-06 16:46 | 36.20693 | -77.44682 | 31865 ft | 499 kts | 50° |
| 2026-05-06 16:46 | 36.22643 | -77.41108 | 32179 ft | 502 kts | 50° |
| 2026-05-06 16:46 | 36.24600 | -77.37516 | 32508 ft | 503 kts | 50° |
| 2026-05-06 16:47 | 36.26551 | -77.33929 | 32928 ft | 502 kts | 50° |
| 2026-05-06 16:47 | 36.28503 | -77.30338 | 33410 ft | 500 kts | 49° |
| 2026-05-06 16:47 | 36.30451 | -77.26780 | 33855 ft | 497 kts | 47° |
| 2026-05-06 16:47 | 36.32616 | -77.23494 | 34195 ft | 488 kts | 38° |
| 2026-05-06 16:48 | 36.35043 | -77.20662 | 34408 ft | 486 kts | 34° |
| 2026-05-06 16:48 | 36.37576 | -77.17873 | 34586 ft | 488 kts | 33° |
| 2026-05-06 16:48 | 36.40129 | -77.15096 | 34929 ft | 486 kts | 33° |
| 2026-05-06 16:48 | 36.42657 | -77.12335 | 35370 ft | 482 kts | 32° |
| 2026-05-06 16:49 | 36.45157 | -77.09581 | 35781 ft | 479 kts | 32° |
| 2026-05-06 16:49 | 36.47639 | -77.06824 | 36110 ft | 478 kts | 32° |
| 2026-05-06 16:49 | 36.50113 | -77.04061 | 36390 ft | 478 kts | 32° |
| 2026-05-06 16:49 | 36.52582 | -77.01292 | 36714 ft | 478 kts | 31° |
| 2026-05-06 16:50 | 36.55035 | -76.98501 | 36963 ft | 478 kts | 31° |
| 2026-05-06 16:50 | 36.57503 | -76.95719 | 37162 ft | 479 kts | 31° |
| 2026-05-06 16:50 | 36.59973 | -76.92942 | 37456 ft | 478 kts | 30° |
| 2026-05-06 16:50 | 36.62433 | -76.90175 | 37800 ft | 475 kts | 30° |
| 2026-05-06 16:51 | 36.64874 | -76.87424 | 38116 ft | 474 kts | 30° |
| 2026-05-06 16:51 | 36.67314 | -76.84670 | 38367 ft | 473 kts | 29° |
| 2026-05-06 16:51 | 36.69751 | -76.81917 | 38616 ft | 473 kts | 28° |
| 2026-05-06 16:51 | 36.72184 | -76.79166 | 38833 ft | 472 kts | 28° |
| 2026-05-06 16:52 | 36.74612 | -76.76416 | 39055 ft | 472 kts | 28° |
| 2026-05-06 16:52 | 36.79517 | -76.70866 | 39025 ft | 477 kts | 28° |
| 2026-05-06 16:53 | 36.84411 | -76.65296 | 39020 ft | 474 kts | 28° |
| 2026-05-06 16:53 | 36.89261 | -76.59766 | 39023 ft | 471 kts | 28° |
| 2026-05-06 16:54 | 36.94062 | -76.54289 | 39019 ft | 469 kts | 28° |
| 2026-05-06 16:54 | 36.98910 | -76.48763 | 39008 ft | 475 kts | 28° |
| 2026-05-06 16:55 | 37.03814 | -76.43162 | 38994 ft | 478 kts | 28° |
| 2026-05-06 16:55 | 37.08721 | -76.37527 | 38989 ft | 479 kts | 28° |
| 2026-05-06 16:56 | 37.13626 | -76.31886 | 38989 ft | 478 kts | 28° |
| 2026-05-06 16:56 | 37.18504 | -76.26271 | 38992 ft | 479 kts | 28° |
| 2026-05-06 16:57 | 37.23417 | -76.20608 | 39000 ft | 480 kts | 28° |
| 2026-05-06 16:57 | 37.28345 | -76.14917 | 38996 ft | 482 kts | 28° |
| 2026-05-06 16:58 | 37.33284 | -76.09200 | 38989 ft | 482 kts | 28° |
| 2026-05-06 16:58 | 37.38216 | -76.03479 | 38980 ft | 483 kts | 28° |
| 2026-05-06 16:59 | 37.43148 | -75.97749 | 38989 ft | 483 kts | 28° |
| 2026-05-06 16:59 | 37.48094 | -75.91992 | 38999 ft | 484 kts | 28° |
| 2026-05-06 17:00 | 37.53025 | -75.86305 | 38993 ft | 479 kts | 25° |
| 2026-05-06 17:00 | 37.55682 | -75.83902 | 38996 ft | 461 kts | 16° |
| 2026-05-06 17:00 | 37.58423 | -75.81840 | 39005 ft | 458 kts | 15° |
| 2026-05-06 17:01 | 37.63946 | -75.77823 | 39024 ft | 459 kts | 15° |
| 2026-05-06 17:01 | 37.69463 | -75.73737 | 39005 ft | 461 kts | 15° |
| 2026-05-06 17:02 | 37.74968 | -75.69587 | 38996 ft | 461 kts | 16° |
| 2026-05-06 17:02 | 37.80433 | -75.65445 | 38994 ft | 461 kts | 17° |
| 2026-05-06 17:03 | 37.85919 | -75.61248 | 38986 ft | 463 kts | 19° |
| 2026-05-06 17:03 | 37.91272 | -75.56603 | 38989 ft | 468 kts | 21° |
| 2026-05-06 17:04 | 37.96593 | -75.51860 | 38992 ft | 467 kts | 21° |
| 2026-05-06 17:04 | 38.01937 | -75.47192 | 38977 ft | 467 kts | 20° |
| 2026-05-06 17:05 | 38.07301 | -75.42563 | 38972 ft | 464 kts | 19° |
| 2026-05-06 17:05 | 38.12730 | -75.38168 | 38973 ft | 462 kts | 18° |
| 2026-05-06 17:06 | 38.18166 | -75.33786 | 38964 ft | 463 kts | 18° |
| 2026-05-06 17:06 | 38.23594 | -75.29353 | 38985 ft | 463 kts | 18° |
| 2026-05-06 17:06 | 38.26308 | -75.27335 | 38970 ft | 448 kts | 9° |
| 2026-05-06 17:07 | 38.29148 | -75.25841 | 38996 ft | 438 kts | 5° |
| 2026-05-06 17:07 | 38.34868 | -75.23251 | 38989 ft | 436 kts | 4° |
| 2026-05-06 17:08 | 38.40606 | -75.20619 | 38982 ft | 439 kts | 5° |
| 2026-05-06 17:08 | 38.46352 | -75.17863 | 38987 ft | 442 kts | 6° |
| 2026-05-06 17:09 | 38.52117 | -75.15057 | 38977 ft | 444 kts | 6° |
| 2026-05-06 17:09 | 38.57893 | -75.12242 | 38968 ft | 445 kts | 6° |
| 2026-05-06 17:10 | 38.63693 | -75.09402 | 38966 ft | 450 kts | 8° |
| 2026-05-06 17:10 | 38.66478 | -75.07293 | 38936 ft | 485 kts | 27° |
| 2026-05-06 17:10 | 38.69012 | -75.04389 | 38962 ft | 492 kts | 30° |
| 2026-05-06 17:11 | 38.74001 | -74.98351 | 38950 ft | 493 kts | 30° |
| 2026-05-06 17:11 | 38.79039 | -74.92518 | 38939 ft | 488 kts | 27° |
| 2026-05-06 17:12 | 38.84264 | -74.87058 | 38852 ft | 485 kts | 24° |
| 2026-05-06 17:12 | 38.86934 | -74.84363 | 38256 ft | 490 kts | 25° |
| 2026-05-06 17:12 | 38.89597 | -74.81641 | 37676 ft | 488 kts | 25° |
| 2026-05-06 17:12 | 38.92238 | -74.78905 | 37054 ft | 487 kts | 26° |
| 2026-05-06 17:13 | 38.94867 | -74.76165 | 36457 ft | 486 kts | 26° |
| 2026-05-06 17:13 | 38.97489 | -74.73426 | 35841 ft | 485 kts | 26° |
| 2026-05-06 17:13 | 39.00107 | -74.70683 | 35171 ft | 486 kts | 27° |
| 2026-05-06 17:13 | 39.02732 | -74.67927 | 34486 ft | 488 kts | 27° |
| 2026-05-06 17:14 | 39.05369 | -74.65155 | 33688 ft | 491 kts | 28° |
| 2026-05-06 17:14 | 39.08017 | -74.62367 | 32855 ft | 493 kts | 28° |
| 2026-05-06 17:14 | 39.10675 | -74.59565 | 32034 ft | 494 kts | 29° |
| 2026-05-06 17:14 | 39.13344 | -74.56750 | 31193 ft | 495 kts | 30° |
| 2026-05-06 17:15 | 39.16007 | -74.53916 | 30382 ft | 497 kts | 31° |
| 2026-05-06 17:15 | 39.18645 | -74.51077 | 29777 ft | 492 kts | 32° |
| 2026-05-06 17:15 | 39.21245 | -74.48216 | 29088 ft | 489 kts | 33° |
| 2026-05-06 17:15 | 39.23806 | -74.45366 | 28397 ft | 484 kts | 32° |
| 2026-05-06 17:16 | 39.26323 | -74.42602 | 27757 ft | 479 kts | 32° |
| 2026-05-06 17:16 | 39.28860 | -74.39842 | 27127 ft | 475 kts | 33° |
| 2026-05-06 17:16 | 39.31370 | -74.37096 | 26492 ft | 471 kts | 33° |
| 2026-05-06 17:16 | 39.33859 | -74.34360 | 25851 ft | 468 kts | 34° |
| 2026-05-06 17:17 | 39.36328 | -74.31636 | 25219 ft | 465 kts | 34° |
| 2026-05-06 17:17 | 39.38790 | -74.28920 | 24569 ft | 463 kts | 34° |
| 2026-05-06 17:17 | 39.41234 | -74.26222 | 23940 ft | 461 kts | 35° |
| 2026-05-06 17:17 | 39.43671 | -74.23530 | 23244 ft | 460 kts | 36° |
| 2026-05-06 17:18 | 39.46096 | -74.20847 | 22540 ft | 457 kts | 36° |
| 2026-05-06 17:18 | 39.48501 | -74.18177 | 21877 ft | 453 kts | 36° |
| 2026-05-06 17:18 | 39.50880 | -74.15527 | 21259 ft | 449 kts | 36° |
| 2026-05-06 17:18 | 39.53184 | -74.12824 | 20777 ft | 444 kts | 43° |
| 2026-05-06 17:19 | 39.55181 | -74.09811 | 20597 ft | 436 kts | 49° |
| 2026-05-06 17:19 | 39.57037 | -74.06717 | 20370 ft | 435 kts | 49° |
| 2026-05-06 17:19 | 39.58939 | -74.03600 | 20163 ft | 441 kts | 48° |
| 2026-05-06 17:19 | 39.60882 | -74.00511 | 19939 ft | 443 kts | 47° |
| 2026-05-06 17:20 | 39.62814 | -73.97480 | 19692 ft | 438 kts | 47° |
| 2026-05-06 17:20 | 39.64744 | -73.94455 | 19467 ft | 433 kts | 47° |
| 2026-05-06 17:20 | 39.66654 | -73.91460 | 19258 ft | 429 kts | 47° |
| 2026-05-06 17:20 | 39.68546 | -73.88486 | 19029 ft | 426 kts | 47° |
| 2026-05-06 17:21 | 39.70428 | -73.85525 | 18819 ft | 426 kts | 47° |
| 2026-05-06 17:21 | 39.72320 | -73.82546 | 18618 ft | 429 kts | 47° |
| 2026-05-06 17:21 | 39.74219 | -73.79548 | 18395 ft | 429 kts | 48° |
| 2026-05-06 17:21 | 39.76110 | -73.76560 | 18193 ft | 427 kts | 48° |
| 2026-05-06 17:22 | 39.77995 | -73.73577 | 17917 ft | 425 kts | 48° |
| 2026-05-06 17:22 | 39.79870 | -73.70610 | 17682 ft | 424 kts | 48° |
| 2026-05-06 17:22 | 39.81736 | -73.67653 | 17449 ft | 422 kts | 48° |
| 2026-05-06 17:22 | 39.83596 | -73.64703 | 17232 ft | 421 kts | 48° |
| 2026-05-06 17:23 | 39.85452 | -73.61757 | 17012 ft | 420 kts | 48° |
| 2026-05-06 17:23 | 39.87299 | -73.58823 | 16877 ft | 418 kts | 49° |
| 2026-05-06 17:23 | 39.89114 | -73.55937 | 16681 ft | 418 kts | 49° |
| 2026-05-06 17:23 | 39.91028 | -73.53026 | 16459 ft | 417 kts | 43° |
| 2026-05-06 17:24 | 39.93113 | -73.50421 | 16273 ft | 416 kts | 39° |
| 2026-05-06 17:24 | 39.95265 | -73.47959 | 16089 ft | 417 kts | 38° |
| 2026-05-06 17:24 | 39.97464 | -73.45482 | 15862 ft | 419 kts | 38° |
| 2026-05-06 17:24 | 39.99661 | -73.42973 | 15621 ft | 419 kts | 38° |
| 2026-05-06 17:25 | 40.01840 | -73.40441 | 15410 ft | 418 kts | 39° |
| 2026-05-06 17:25 | 40.03998 | -73.37898 | 15194 ft | 417 kts | 39° |
| 2026-05-06 17:25 | 40.06144 | -73.35351 | 14985 ft | 416 kts | 39° |
| 2026-05-06 17:25 | 40.08288 | -73.32800 | 14772 ft | 415 kts | 40° |
| 2026-05-06 17:26 | 40.10422 | -73.30262 | 14562 ft | 414 kts | 40° |
| 2026-05-06 17:26 | 40.12555 | -73.27723 | 14354 ft | 413 kts | 40° |
| 2026-05-06 17:26 | 40.14651 | -73.25226 | 14157 ft | 413 kts | 40° |
| 2026-05-06 17:26 | 40.16771 | -73.22698 | 13940 ft | 412 kts | 40° |
| 2026-05-06 17:27 | 40.18888 | -73.20171 | 13716 ft | 412 kts | 40° |
| 2026-05-06 17:27 | 40.21000 | -73.17646 | 13488 ft | 411 kts | 40° |
| 2026-05-06 17:27 | 40.23113 | -73.15120 | 13255 ft | 410 kts | 40° |
| 2026-05-06 17:27 | 40.25215 | -73.12604 | 13038 ft | 409 kts | 40° |
| 2026-05-06 17:28 | 40.27313 | -73.10091 | 12819 ft | 407 kts | 40° |
| 2026-05-06 17:28 | 40.29399 | -73.07592 | 12615 ft | 406 kts | 40° |
| 2026-05-06 17:28 | 40.31478 | -73.05100 | 12431 ft | 405 kts | 41° |
| 2026-05-06 17:28 | 40.33557 | -73.02606 | 12210 ft | 404 kts | 41° |
| 2026-05-06 17:29 | 40.34925 | -73.00963 | 12076 ft | 403 kts | 41° |
| 2026-05-06 17:29 | 40.36993 | -72.98480 | 11861 ft | 403 kts | 41° |
| 2026-05-06 17:29 | 40.39056 | -72.95999 | 11655 ft | 402 kts | 41° |
| 2026-05-06 17:29 | 40.41116 | -72.93522 | 11452 ft | 401 kts | 41° |
| 2026-05-06 17:30 | 40.43174 | -72.91043 | 11241 ft | 400 kts | 41° |
| 2026-05-06 17:30 | 40.45221 | -72.88574 | 11050 ft | 399 kts | 41° |
| 2026-05-06 17:30 | 40.47266 | -72.86103 | 10844 ft | 398 kts | 41° |
| 2026-05-06 17:30 | 40.49275 | -72.83676 | 10658 ft | 396 kts | 42° |
| 2026-05-06 17:31 | 40.51281 | -72.81250 | 10440 ft | 385 kts | 42° |
| 2026-05-06 17:31 | 40.53217 | -72.78906 | 10239 ft | 372 kts | 42° |
| 2026-05-06 17:31 | 40.55096 | -72.76628 | 10062 ft | 361 kts | 42° |
| 2026-05-06 17:31 | 40.56908 | -72.74430 | 9979 ft | 346 kts | 42° |
| 2026-05-06 17:32 | 40.58646 | -72.72320 | 9879 ft | 334 kts | 42° |
| 2026-05-06 17:32 | 40.60399 | -72.70352 | 9546 ft | 329 kts | 29° |
| 2026-05-06 17:32 | 40.62487 | -72.69271 | 9158 ft | 318 kts | 4° |
| 2026-05-06 17:32 | 40.64659 | -72.68937 | 8828 ft | 312 kts | 358° |
| 2026-05-06 17:33 | 40.66815 | -72.68724 | 8470 ft | 310 kts | 357° |
| 2026-05-06 17:33 | 40.68965 | -72.68534 | 8114 ft | 309 kts | 357° |
| 2026-05-06 17:33 | 40.71078 | -72.68360 | 7749 ft | 308 kts | 357° |
| 2026-05-06 17:33 | 40.73208 | -72.68193 | 7420 ft | 305 kts | 357° |
| 2026-05-06 17:34 | 40.75323 | -72.68035 | 7090 ft | 304 kts | 357° |
| 2026-05-06 17:34 | 40.77426 | -72.67886 | 6763 ft | 302 kts | 357° |
| 2026-05-06 17:34 | 40.79516 | -72.67745 | 6454 ft | 300 kts | 357° |
| 2026-05-06 17:34 | 40.81592 | -72.67614 | 6145 ft | 297 kts | 357° |
| 2026-05-06 17:35 | 40.83651 | -72.67491 | 5751 ft | 297 kts | 357° |
| 2026-05-06 17:35 | 40.85717 | -72.67371 | 5395 ft | 296 kts | 356° |
| 2026-05-06 17:35 | 40.87765 | -72.67249 | 5118 ft | 293 kts | 356° |
| 2026-05-06 17:36 | 40.91856 | -72.66993 | 4348 ft | 294 kts | 357° |
| 2026-05-06 17:36 | 40.93897 | -72.66861 | 4063 ft | 292 kts | 356° |
| 2026-05-06 17:36 | 40.95928 | -72.66723 | 4040 ft | 293 kts | 356° |
| 2026-05-06 17:36 | 40.97969 | -72.66583 | 4034 ft | 293 kts | 357° |
| 2026-05-06 17:37 | 41.00001 | -72.66454 | 4030 ft | 293 kts | 357° |
| 2026-05-06 17:37 | 41.02036 | -72.66329 | 4022 ft | 293 kts | 356° |
| 2026-05-06 17:37 | 41.04077 | -72.66197 | 4023 ft | 293 kts | 356° |
| 2026-05-06 17:37 | 41.06093 | -72.66239 | 4018 ft | 288 kts | 348° |
| 2026-05-06 17:38 | 41.08091 | -72.66478 | 4029 ft | 288 kts | 347° |
| 2026-05-06 17:38 | 41.10083 | -72.66739 | 4010 ft | 288 kts | 347° |
| 2026-05-06 17:38 | 41.12072 | -72.67007 | 4009 ft | 287 kts | 347° |
| 2026-05-06 17:38 | 41.14040 | -72.67277 | 4002 ft | 286 kts | 347° |
| 2026-05-06 17:39 | 41.16021 | -72.67551 | 4004 ft | 286 kts | 347° |
| 2026-05-06 17:39 | 41.17988 | -72.67821 | 3863 ft | 282 kts | 347° |
| 2026-05-06 17:39 | 41.19934 | -72.68088 | 3492 ft | 281 kts | 347° |
| 2026-05-06 17:39 | 41.21874 | -72.68352 | 3144 ft | 280 kts | 347° |
| 2026-05-06 17:40 | 41.23810 | -72.68619 | 2802 ft | 278 kts | 347° |
| 2026-05-06 17:40 | 41.25734 | -72.68885 | 2540 ft | 278 kts | 347° |
| 2026-05-06 17:40 | 41.27649 | -72.69151 | 2521 ft | 274 kts | 347° |
| 2026-05-06 17:40 | 41.29505 | -72.69407 | 2502 ft | 262 kts | 347° |
| 2026-05-06 17:41 | 41.31286 | -72.69660 | 2482 ft | 257 kts | 347° |
| 2026-05-06 17:41 | 41.33073 | -72.69936 | 2501 ft | 258 kts | 347° |
| 2026-05-06 17:41 | 41.34846 | -72.70217 | 2487 ft | 256 kts | 346° |
| 2026-05-06 17:41 | 41.36614 | -72.70478 | 2508 ft | 255 kts | 346° |
| 2026-05-06 17:42 | 41.38322 | -72.70950 | 2478 ft | 244 kts | 325° |
| 2026-05-06 17:42 | 41.39532 | -72.72296 | 2498 ft | 217 kts | 292° |
| 2026-05-06 17:42 | 41.40104 | -72.74073 | 2511 ft | 210 kts | 281° |
| 2026-05-06 17:42 | 41.40636 | -72.75973 | 2504 ft | 226 kts | 282° |
| 2026-05-06 17:43 | 41.41181 | -72.77886 | 2513 ft | 214 kts | 282° |
| 2026-05-06 17:43 | 41.41688 | -72.79656 | 2478 ft | 194 kts | 281° |
| 2026-05-06 17:43 | 41.42143 | -72.81248 | 2471 ft | 175 kts | 280° |
| 2026-05-06 17:43 | 41.42565 | -72.82744 | 2477 ft | 171 kts | 279° |
| 2026-05-06 17:44 | 41.42978 | -72.84226 | 2497 ft | 170 kts | 278° |
| 2026-05-06 17:44 | 41.43077 | -72.85706 | 2492 ft | 155 kts | 249° |
| 2026-05-06 17:44 | 41.42593 | -72.86918 | 2499 ft | 143 kts | 223° |
| 2026-05-06 17:44 | 41.41729 | -72.87610 | 2420 ft | 154 kts | 198° |
| 2026-05-06 17:45 | 41.40639 | -72.87742 | 2347 ft | 158 kts | 190° |
| 2026-05-06 17:45 | 41.39546 | -72.87840 | 2216 ft | 156 kts | 189° |
| 2026-05-06 17:45 | 41.38529 | -72.87916 | 2086 ft | 135 kts | 189° |
| 2026-05-06 17:45 | 41.37666 | -72.87978 | 2037 ft | 116 kts | 190° |
| 2026-05-06 17:46 | 41.36913 | -72.88031 | 1963 ft | 103 kts | 190° |
| 2026-05-06 17:46 | 41.36208 | -72.88084 | 1886 ft | 102 kts | 191° |
| 2026-05-06 17:46 | 41.35500 | -72.88149 | 1821 ft | 102 kts | 190° |
| 2026-05-06 17:46 | 41.34784 | -72.88204 | 1715 ft | 104 kts | 189° |
| 2026-05-06 17:47 | 41.34086 | -72.88252 | 1661 ft | 100 kts | 189° |
| 2026-05-06 17:47 | 41.33371 | -72.88302 | 1513 ft | 104 kts | 188° |
| 2026-05-06 17:47 | 41.32630 | -72.88352 | 1351 ft | 108 kts | 189° |
| 2026-05-06 17:47 | 41.31889 | -72.88401 | 1149 ft | 101 kts | 189° |
| 2026-05-06 17:48 | 41.31199 | -72.88448 | 1016 ft | 102 kts | 188° |
| 2026-05-06 17:48 | 41.30460 | -72.88499 | 857 ft | 112 kts | 187° |
| 2026-05-06 17:48 | 41.29647 | -72.88551 | 693 ft | 121 kts | 185° |
| 2026-05-06 17:48 | 41.28822 | -72.88587 | 468 ft | 116 kts | 184° |
| 2026-05-06 17:49 | 41.27963 | -72.88661 | 240 ft | 131 kts | 184° |
| 2026-05-06 17:49 | 41.27045 | -72.88723 | 44 ft | 133 kts | 184° |
| 2026-05-06 17:49 | 41.26226 | -72.88783 | 17 ft | 91 kts | 183° |
| 2026-05-06 17:49 | 41.25808 | -72.88812 | 18 ft | 29 kts | 183° |
| 2026-05-06 17:50 | 41.25652 | -72.88821 | 16 ft | 13 kts | 179° |
| 2026-05-06 17:50 | 41.25615 | -72.88742 | 15 ft | 10 kts | 63° |
| 2026-05-06 17:50 | 41.25683 | -72.88720 | 16 ft | 10 kts | 3° |
| 2026-05-06 17:50 | 41.25753 | -72.88715 | 16 ft | 10 kts | 3° |
| 2026-05-06 17:51 | 41.25821 | -72.88711 | 16 ft | 10 kts | 4° |
| 2026-05-06 17:51 | 41.25886 | -72.88698 | 16 ft | 9 kts | 11° |
| 2026-05-06 17:51 | 41.25949 | -72.88683 | 16 ft | 9 kts | 9° |
| 2026-05-06 17:51 | 41.26013 | -72.88668 | 16 ft | 10 kts | 10° |
| 2026-05-06 17:52 | 41.26086 | -72.88651 | 16 ft | 11 kts | 10° |
| 2026-05-06 17:52 | 41.26159 | -72.88633 | 16 ft | 11 kts | 10° |
| 2026-05-06 17:52 | 41.26232 | -72.88616 | 16 ft | 11 kts | 9° |
| 2026-05-06 17:52 | 41.26299 | -72.88581 | 16 ft | 10 kts | 36° |
| 2026-05-06 17:53 | 41.26355 | -72.88524 | 16 ft | 10 kts | 37° |
| 2026-05-06 17:53 | 41.26413 | -72.88466 | 16 ft | 9 kts | 37° |
| 2026-05-06 17:53 | 41.26460 | -72.88477 | 16 ft | 8 kts | 313° |
| 2026-05-06 17:53 | 41.26498 | -72.88533 | 16 ft | 8 kts | 311° |
| 2026-05-06 17:54 | 41.26535 | -72.88588 | 17 ft | 8 kts | 312° |
| 2026-05-06 17:54 | 41.26569 | -72.88638 | 16 ft | 4 kts | 312° |
| 2026-05-06 17:54 | 41.26575 | -72.88647 | 17 ft | 0 kts | 312° |
| 2026-05-06 17:54 | 41.26576 | -72.88648 | 17 ft | 1 kts | 312° |
| 2026-05-06 17:55 | 41.26595 | -72.88677 | 15 ft | 6 kts | 311° |
| 2026-05-06 17:55 | 41.26638 | -72.88740 | 14 ft | 11 kts | 312° |
| 2026-05-06 17:55 | 41.26692 | -72.88819 | 14 ft | 11 kts | 311° |
| 2026-05-06 17:55 | 41.26744 | -72.88897 | 15 ft | 11 kts | 312° |
| 2026-05-06 17:56 | 41.26791 | -72.88967 | 15 ft | 8 kts | 307° |
| 2026-05-06 17:56 | 41.26824 | -72.89026 | 16 ft | 6 kts | 311° |
| 2026-05-06 17:56 | 41.26846 | -72.89060 | 18 ft | 3 kts | 311° |
| 2026-05-06 17:56 | 41.26857 | -72.89076 | 16 ft | 2 kts | 311° |
| 2026-05-06 17:57 | 41.26858 | -72.89079 | 16 ft | 0 kts | 311° |